• Join FlightAware (Why Join?)
  • Login
  • US Flag 
Gobble Gobble! 
11:07PM EST


 

Airport Tracker/Info


-or-


 

Live Flight TrackerFlight Track Log ✈ N117CC ✈ 15-Sep-2013 ✈ KSNA - KSAC

Flight Track Log - Related Links

Times and Time Zones

All times are in EDT time to prevent confusion due to time zone crossing. See the N117CC flight status page for this flight to view local times or setup timezone preferences in your user account.

Time Position Orientation Groundspeed Altitude Reporting Facility
EDT Latitude Longitude Course Direction KTS MPH feet Rate Location/Type
04:33PM 33.6333 -117.8833 196° South 166 191 1,800  Level Southern California TRACON
04:34PM 33.5833 -117.9000 196° South 189 217 3,500 1,740 Climbing Southern California TRACON
04:35PM 33.5217 -117.9422 210° Southwest 186 214 6,100 1,680 Climbing Los Angeles Center
04:36PM 33.4911 -117.9947 235° Southwest 192 221 7,700 1,320 Climbing Los Angeles Center
04:37PM 33.5042 -118.0617 283° West 218 251 8,900 1,260 Climbing Los Angeles Center
04:39PM 33.5389 -118.1219 305° West 221 254 10,400 1,320 Climbing Los Angeles Center
04:40PM 33.5875 -118.1617 326° Northwest 232 267 11,700 1,200 Climbing Los Angeles Center
04:41PM 33.6547 -118.1303 21° North 222 255 13,000 1,140 Climbing Los Angeles Center
04:42PM 33.7117 -118.0942 28° Northeast 231 266 14,100 1,140 Climbing Los Angeles Center
04:43PM 33.7661 -118.0636 25° Northeast 222 255 15,400 1,020 Climbing Los Angeles Center
04:44PM 33.8231 -118.0711 354° North 213 245 16,300 960 Climbing Los Angeles Center
04:45PM 33.8758 -118.1050 332° Northwest 216 249 17,400 1,200 Climbing Los Angeles Center
04:46PM 33.9400 -118.1392 336° Northwest 211 243 18,800 1,020 Climbing Los Angeles Center
04:47PM 33.9911 -118.1728 331° Northwest 212 244 19,600 540 Climbing Los Angeles Center
04:48PM 34.0492 -118.2028 337° Northwest 224 258 20,000 180 Climbing Los Angeles Center
04:49PM 34.1100 -118.2411 332° Northwest 245 282 20,000  Level Los Angeles Center
04:50PM 34.1761 -118.2786 335° Northwest 260 299 20,000  Level Los Angeles Center
04:51PM 34.2581 -118.3256 335° Northwest 271 312 20,000  Level Los Angeles Center
04:52PM 34.3264 -118.3678 333° Northwest 275 316 20,000  Level Los Angeles Center
04:53PM 34.3972 -118.4072 335° Northwest 282 325 20,000  Level Los Angeles Center
04:54PM 34.4664 -118.4497 333° Northwest 280 322 20,000  Level Los Angeles Center
04:55PM 34.5378 -118.4892 336° Northwest 282 325 20,000  Level Los Angeles Center
04:56PM 34.6203 -118.5411 333° Northwest 280 322 20,000  Level Los Angeles Center
04:57PM 34.6908 -118.5819 335° Northwest 282 325 20,000  Level Los Angeles Center
04:58PM 34.7628 -118.6203 336° Northwest 282 325 20,000  Level Los Angeles Center
04:59PM 34.8322 -118.6619 334° Northwest 281 323 20,000  Level Los Angeles Center
05:00PM 34.9128 -118.7022 338° Northwest 281 323 20,000  Level Los Angeles Center
05:01PM 34.9825 -118.7431 334° Northwest 279 321 20,000  Level Los Angeles Center
05:02PM 35.0553 -118.7797 338° Northwest 282 325 20,000  Level Los Angeles Center
05:03PM 35.1250 -118.8219 334° Northwest 281 323 20,000  Level Los Angeles Center
05:04PM 35.1989 -118.8581 338° Northwest 284 327 20,000  Level Los Angeles Center
05:05PM 35.2861 -118.9078 335° Northwest 289 333 20,000  Level Los Angeles Center
05:06PM 35.3572 -118.9456 337° Northwest 282 325 20,000  Level Los Angeles Center
05:08PM 35.4292 -118.9867 335° Northwest 284 327 20,000  Level Los Angeles Center
05:09PM 35.5011 -119.0250 337° Northwest 283 326 20,000  Level Los Angeles Center
05:10PM 35.5714 -119.0689 333° Northwest 283 326 20,000  Level Los Angeles Center
05:11PM 35.6575 -119.1133 337° Northwest 281 323 20,000  Level Los Angeles Center
05:12PM 35.7294 -119.1567 334° Northwest 285 328 20,000  Level Los Angeles Center
05:13PM 35.8017 -119.1944 337° Northwest 284 327 20,000  Level Los Angeles Center
05:14PM 35.8714 -119.2383 333° Northwest 283 326 20,000  Level Los Angeles Center
05:15PM 35.9453 -119.2772 337° Northwest 286 329 20,000  Level Los Angeles Center
05:16PM 36.0161 -119.3200 334° Northwest 285 328 20,000  Level Los Angeles Center
05:17PM 36.1039 -119.3667 337° Northwest 286 329 20,000  Level Los Angeles Center
05:18PM 36.1747 -119.4103 334° Northwest 286 329 20,000  Level Los Angeles Center
05:19PM 36.2486 -119.4475 338° Northwest 287 330 20,000  Level Los Angeles Center
05:20PM 36.3042 -119.4831 333° Northwest 282 325 20,000  Level Los Angeles Center
05:21PM 36.3928 -119.5306 337° Northwest 288 331 20,000  Level Los Angeles Center
05:22PM 36.4781 -119.5844 333° Northwest 286 329 20,000  Level Los Angeles Center
05:23PM 36.5506 -119.6206 338° Northwest 287 330 20,000  Level Oakland Center
05:24PM 36.6211 -119.6656 333° Northwest 286 329 20,000  Level Oakland Center
05:25PM 36.7086 -119.7125 337° Northwest 285 328 20,000  Level Oakland Center
05:26PM 36.7794 -119.7547 334° Northwest 283 326 20,000  Level Oakland Center
05:27PM 36.8517 -119.7956 336° Northwest 284 327 20,000  Level Oakland Center
05:28PM 36.9161 -119.8483 327° Northwest 278 320 20,000  Level Oakland Center
05:29PM 36.9792 -119.9075 323° Northwest 281 323 20,000  Level Oakland Center
05:30PM 37.0389 -119.9689 321° Northwest 280 322 20,000  Level Oakland Center
05:31PM 37.1011 -120.0275 323° Northwest 282 325 20,000  Level Oakland Center
05:32PM 37.1739 -120.1011 321° Northwest 280 322 20,000  Level Oakland Center
05:33PM 37.2364 -120.1608 323° Northwest 281 323 20,000  Level Oakland Center
05:34PM 37.2967 -120.2236 320° Northwest 282 325 20,000  Level Oakland Center
05:35PM 37.3583 -120.2836 322° Northwest 279 321 20,000  Level Oakland Center
05:36PM 37.4194 -120.3456 321° Northwest 282 325 20,000  Level Oakland Center
05:37PM 37.4819 -120.4058 323° Northwest 281 323 20,000 -180 Level Oakland Center
05:39PM 37.5425 -120.4672 321° Northwest 280 322 19,700 -540 Descending Oakland Center
05:40PM 37.6056 -120.5333 320° Northwest 289 333 18,900 -960 Descending Oakland Center
05:41PM 37.6889 -120.6144 322° Northwest 310 357 17,800 -900 Descending Oakland Center
05:42PM 37.7586 -120.6808 323° Northwest 313 360 17,100 -900 Descending Oakland Center
05:43PM 37.8267 -120.7533 320° Northwest 318 366 16,000 -1,020 Descending Oakland Center
05:44PM 37.8972 -120.8231 322° Northwest 323 372 15,100 -900 Descending Oakland Center
05:45PM 37.9664 -120.8936 321° Northwest 321 369 14,200 -840 Descending Oakland Center
05:46PM 38.0356 -120.9667 320° Northwest 323 372 13,400 -1,020 Descending Oakland Center
05:47PM 38.1058 -121.0386 321° Northwest 324 373 12,200 -1,320 Descending Oakland Center
05:48PM 38.1725 -121.1156 318° Northwest 324 373 10,700 -1,500 Descending Oakland Center
05:49PM 38.2406 -121.1817 323° Northwest 310 357 9,100 -1,980 Descending Oakland Center
05:50PM 38.3197 -121.2589 323° Northwest 301 346 6,700 -2,220 Descending Oakland Center
05:51PM 38.3794 -121.3183 322° Northwest 281 323 4,600 -1,800 Descending Oakland Center
05:52PM 38.4289 -121.3681 322° Northwest 258 297 3,100 -1,320 Descending Oakland Center
05:53PM 38.4833 -121.4000 335° Northwest 201 231 2,000 -960 Descending Northern Cal TRACON
05:54PM 38.5333 -121.4333 332° Northwest 146 168 1,200 -780 Descending Northern Cal TRACON
05:55PM 38.5333 -121.4833 270° West 124 143 500 -720 Descending Northern Cal TRACON
05:58PM 38.5125 -121.4935 314° West  Level Estimated